Time;durP1;ratioP1;P1;durP2;ratioP2;P2;SDS_P1;SDS_P2;PMS_P1;PMS_P2;Temp;Humidity;BMP_temperature;BMP_pressure;BME280_temperature;BME280_humidity;BME280_pressure;Samples;Min_cycle;Max_cycle;Signal;HPM_P1;HPM_P2
2022/02/15 00:01:10;;;;;;;32.57;14.70;;;;;;;-0.99;54.82;101322.25;126315;1099;104185;-79
2022/02/15 00:03:41;;;;;;;34.43;13.03;;;;;;;-1.00;54.02;101319.52;126372;1099;104149;-79
2022/02/15 00:06:13;;;;;;;32.57;13.27;;;;;;;-1.00;54.65;101317.84;126283;1099;104181;-79
2022/02/15 00:08:44;;;;;;;30.03;13.13;;;;;;;-1.01;54.23;101309.97;126227;1099;104150;-79
2022/02/15 00:11:16;;;;;;;32.10;13.60;;;;;;;-1.03;54.97;101302.09;126320;1099;104200;-80
2022/02/15 00:13:47;;;;;;;29.15;13.50;;;;;;;-1.04;54.99;101312.25;126326;1098;104230;-80
2022/02/15 00:16:18;;;;;;;35.23;15.83;;;;;;;-1.05;54.97;101311.36;126247;1099;104251;-79
2022/02/15 00:18:50;;;;;;;36.33;15.57;;;;;;;-1.07;54.96;101304.27;126244;1099;104146;-79
2022/02/15 00:21:21;;;;;;;31.60;14.33;;;;;;;-1.10;55.05;101303.19;126284;1099;104146;-79
2022/02/15 00:23:53;;;;;;;33.23;15.03;;;;;;;-1.11;54.88;101303.05;126347;1099;104258;-79
2022/02/15 00:26:24;;;;;;;41.47;15.90;;;;;;;-1.13;55.34;101300.33;126289;1099;104208;-79
2022/02/15 00:28:56;;;;;;;34.33;15.37;;;;;;;-1.14;54.60;101303.69;126253;1099;104338;-79
2022/02/15 00:31:28;;;;;;;34.70;16.37;;;;;;;-1.18;55.00;101306.72;126327;1098;104140;-79
2022/02/15 00:33:59;;;;;;;36.30;16.33;;;;;;;-1.22;55.11;101296.88;126313;1099;104200;-79
2022/02/15 00:36:30;;;;;;;43.37;17.13;;;;;;;-1.26;54.75;101292.21;126293;1099;104172;-79
2022/02/15 00:39:02;;;;;;;40.03;17.40;;;;;;;-1.29;55.49;101295.39;126287;1099;104153;-79
2022/02/15 00:41:33;;;;;;;34.13;15.90;;;;;;;-1.31;55.85;101294.34;126301;1099;103001;-79
2022/02/15 00:44:04;;;;;;;37.73;15.20;;;;;;;-1.37;55.76;101287.68;126275;1099;101841;-79
2022/02/15 00:46:36;;;;;;;41.63;16.03;;;;;;;-1.42;55.82;101294.06;126358;1099;104197;-79
2022/02/15 00:49:07;;;;;;;36.43;16.03;;;;;;;-1.46;55.53;101283.47;126249;1099;104195;-79
2022/02/15 00:51:39;;;;;;;37.23;16.40;;;;;;;-1.46;55.01;101286.05;126277;1099;104150;-79
2022/02/15 00:54:10;;;;;;;40.90;17.47;;;;;;;-1.47;55.81;101281.65;126371;1099;104146;-79
2022/02/15 00:56:42;;;;;;;38.00;17.47;;;;;;;-1.47;55.80;101281.65;126285;1099;104249;-79
2022/02/15 00:59:14;;;;;;;38.43;17.00;;;;;;;-1.47;55.86;101270.45;126271;1099;104146;-79
2022/02/15 01:01:45;;;;;;;39.40;16.90;;;;;;;-1.46;55.80;101272.28;126345;1099;104172;-79
2022/02/15 01:04:16;;;;;;;36.70;16.03;;;;;;;-1.45;55.58;101275.00;126304;1099;104153;-79
2022/02/15 01:06:48;;;;;;;37.70;16.93;;;;;;;-1.39;56.62;101274.66;126335;1099;104409;-79
2022/02/15 01:09:19;;;;;;;41.00;18.07;;;;;;;-1.32;56.11;101268.45;126185;1099;104281;-78
2022/02/15 01:11:51;;;;;;;40.53;18.27;;;;;;;-1.25;56.00;101264.78;126292;1099;104166;-78
2022/02/15 01:14:23;;;;;;;39.17;17.10;;;;;;;-1.19;55.70;101258.53;126302;1099;104525;-78
2022/02/15 01:16:54;;;;;;;35.63;16.17;;;;;;;-1.12;55.59;101260.05;126342;1099;104689;-79
2022/02/15 01:19:25;;;;;;;37.30;16.10;;;;;;;-1.07;56.08;101250.17;126283;1099;105655;-79
2022/02/15 01:21:57;;;;;;;37.13;17.03;;;;;;;-1.03;55.84;101255.72;126263;1099;104169;-78
2022/02/15 01:24:28;;;;;;;39.57;15.87;;;;;;;-0.98;56.06;101253.58;126291;1097;104146;-79
2022/02/15 01:27:00;;;;;;;38.57;16.40;;;;;;;-0.98;57.31;101244.20;126334;1099;104137;-78
2022/02/15 01:29:32;;;;;;;36.77;16.27;;;;;;;-0.96;56.35;101252.08;126235;1097;104208;-80
2022/02/15 01:32:04;;;;;;;40.67;17.27;;;;;;;-1.00;56.94;101250.86;126304;1099;104274;-79
2022/02/15 01:34:35;;;;;;;41.70;18.13;;;;;;;-1.00;57.08;101248.28;126268;1099;104140;-79
2022/02/15 01:37:07;;;;;;;42.07;18.07;;;;;;;-0.99;56.74;101251.79;126265;1099;104210;-78
2022/02/15 01:39:38;;;;;;;48.10;21.20;;;;;;;-1.02;56.71;101246.34;126275;1098;104158;-78
2022/02/15 01:42:11;;;;;;;43.00;18.57;;;;;;;-1.05;57.32;101243.48;126255;1099;104162;-79
2022/02/15 01:44:43;;;;;;;44.53;20.17;;;;;;;-1.09;56.94;101243.20;126277;1099;104144;-78
2022/02/15 01:47:24;;;;;;;42.60;18.90;;;;;;;-1.12;56.34;101236.86;126278;1099;104143;-79
2022/02/15 01:49:56;;;;;;;43.30;19.73;;;;;;;-1.16;56.60;101234.75;126277;1099;104156;-78
2022/02/15 01:52:28;;;;;;;44.80;20.77;;;;;;;-1.19;57.50;101234.45;126317;1099;109408;-78
2022/02/15 01:55:01;;;;;;;46.03;20.97;;;;;;;-1.23;56.61;101240.07;126267;1099;104181;-79
2022/02/15 01:57:35;;;;;;;45.57;20.27;;;;;;;-1.27;57.22;101238.88;126354;1099;104274;-79
2022/02/15 02:00:28;;;;;;;40.93;18.27;;;;;;;-1.32;56.89;101232.41;126250;1099;104168;-79
2022/02/15 02:03:04;;;;;;;43.67;18.30;;;;;;;-1.35;57.29;101229.53;126325;1099;104153;-78
2022/02/15 02:05:51;;;;;;;40.87;17.87;;;;;;;-1.36;57.23;101232.86;126314;1099;104159;-78
2022/02/15 02:08:30;;;;;;;36.43;16.47;;;;;;;-1.40;57.48;101233.31;126258;1099;104201;-79
2022/02/15 02:11:05;;;;;;;39.67;17.00;;;;;;;-1.44;58.04;101234.70;126334;1099;104258;-78
2022/02/15 02:13:39;;;;;;;37.33;16.97;;;;;;;-1.45;57.79;101231.23;126339;1099;104149;-79
2022/02/15 02:16:15;;;;;;;36.37;15.87;;;;;;;-1.48;57.20;101228.38;126336;1097;104127;-78
2022/02/15 02:18:56;;;;;;;37.07;15.13;;;;;;;-1.51;58.16;101229.72;126267;1099;104245;-78
2022/02/15 02:21:38;;;;;;;38.87;15.60;;;;;;;-1.53;57.64;101234.72;126328;1099;104137;-78
2022/02/15 02:24:11;;;;;;;36.30;15.35;;;;;;;-1.55;57.50;101231.11;126299;1099;104136;-79
2022/02/15 02:26:47;;;;;;;31.20;13.33;;;;;;;-1.56;58.57;101234.43;126271;1099;104178;-78
2022/02/15 02:29:18;;;;;;;34.47;14.47;;;;;;;-1.57;57.59;101235.21;126272;1099;104156;-78
2022/02/15 02:31:51;;;;;;;30.20;13.53;;;;;;;-1.57;58.64;101224.92;126233;1099;104137;-79
2022/02/15 02:34:27;;;;;;;30.37;12.80;;;;;;;-1.57;58.35;101227.49;126289;1099;104293;-79
2022/02/15 02:36:58;;;;;;;32.40;13.33;;;;;;;-1.58;58.16;101230.81;126256;1099;104153;-79
2022/02/15 02:39:31;;;;;;;32.20;12.70;;;;;;;-1.58;58.28;101229.92;126295;1098;104232;-79
2022/02/15 02:42:03;;;;;;;33.20;13.57;;;;;;;-1.60;57.85;101234.92;126212;1099;104171;-79
2022/02/15 02:44:35;;;;;;;34.50;13.30;;;;;;;-1.63;57.72;101230.37;126322;1099;104168;-79
2022/02/15 02:47:07;;;;;;;31.07;13.40;;;;;;;-1.63;58.03;101232.05;126260;1099;104236;-79
2022/02/15 02:49:39;;;;;;;31.67;13.40;;;;;;;-1.65;58.55;101229.33;126332;1099;104643;-79
2022/02/15 02:52:11;;;;;;;33.90;14.53;;;;;;;-1.66;58.15;101235.23;126192;1099;104243;-78
2022/02/15 02:54:45;;;;;;;33.87;13.67;;;;;;;-1.67;57.70;101232.50;126270;1099;104650;-78
2022/02/15 02:57:16;;;;;;;33.70;13.73;;;;;;;-1.70;58.80;101235.71;126281;1098;104133;-78
2022/02/15 02:59:49;;;;;;;31.60;13.70;;;;;;;-1.72;58.23;101226.91;126337;1099;104159;-79
2022/02/15 03:02:21;;;;;;;35.43;13.67;;;;;;;-1.74;58.41;101228.45;126230;1099;104354;-79
2022/02/15 03:04:53;;;;;;;33.87;13.20;;;;;;;-1.76;58.49;101234.19;126298;1099;104203;-79
2022/02/15 03:07:24;;;;;;;35.53;14.27;;;;;;;-1.78;58.15;101231.47;126268;1098;104194;-79
2022/02/15 03:09:56;;;;;;;36.27;13.70;;;;;;;-1.78;58.76;101230.58;126275;1099;104136;-79
2022/02/15 03:12:27;;;;;;;37.17;14.90;;;;;;;-1.78;58.93;101230.58;126290;1099;104168;-79
2022/02/15 03:14:59;;;;;;;38.33;15.80;;;;;;;-1.78;58.67;101233.15;126257;1099;104309;-79
2022/02/15 03:17:31;;;;;;;34.33;14.83;;;;;;;-1.82;58.75;101231.95;126306;1099;104201;-79
2022/02/15 03:20:02;;;;;;;34.83;13.87;;;;;;;-1.83;57.77;101236.17;126392;1099;104143;-78
2022/02/15 03:22:34;;;;;;;36.67;15.80;;;;;;;-1.85;58.80;101227.41;126270;1098;104139;-79
2022/02/15 03:25:07;;;;;;;40.23;17.80;;;;;;;-1.86;58.12;101227.26;126366;1099;104313;-79
2022/02/15 03:27:39;;;;;;;46.17;20.07;;;;;;;-1.89;59.14;101232.11;126378;1096;104162;-79
2022/02/15 03:30:12;;;;;;;64.30;25.30;;;;;;;-1.95;58.33;101232.41;126320;1099;104322;-80
2022/02/15 03:32:47;;;;;;;64.63;25.60;;;;;;;-2.00;58.41;101236.20;126367;1096;104181;-80
2022/02/15 03:35:19;;;;;;;50.67;22.93;;;;;;;-2.04;58.09;101227.30;126394;1099;104168;-80
2022/02/15 03:37:59;;;;;;;57.73;22.23;;;;;;;-2.05;59.13;101234.86;126395;1099;104146;-80
2022/02/15 03:43:16;;;;;;;43.17;17.77;;;;;;;-2.14;59.35;101221.11;126129;1099;104162;-79
2022/02/15 03:45:49;;;;;;;40.37;16.90;;;;;;;-2.13;59.08;101223.83;126275;1099;104285;-80
2022/02/15 03:48:29;;;;;;;42.40;16.53;;;;;;;-2.14;59.59;101218.53;126203;1099;104399;-79
2022/02/15 03:51:00;;;;;;;34.00;13.93;;;;;;;-2.19;60.50;101218.98;126183;1099;104176;-80
2022/02/15 03:53:32;;;;;;;37.53;13.53;;;;;;;-2.21;60.99;101219.61;126196;1099;105530;-79
2022/02/15 03:56:06;;;;;;;33.60;13.10;;;;;;;-2.25;60.00;101215.81;126195;1099;104221;-79
2022/02/15 03:58:37;;;;;;;33.17;12.70;;;;;;;-2.26;60.05;101220.80;126177;1099;104335;-79
2022/02/15 04:01:12;;;;;;;28.90;12.07;;;;;;;-2.29;60.55;101215.36;126186;1099;104189;-79
2022/02/15 04:03:43;;;;;;;28.83;12.07;;;;;;;-2.32;60.48;101222.77;126139;1099;104236;-79
2022/02/15 04:06:15;;;;;;;36.80;13.10;;;;;;;-2.32;59.45;101223.70;126208;1099;104337;-79
2022/02/15 04:08:47;;;;;;;27.33;12.40;;;;;;;-2.33;60.25;101218.41;126176;1099;104447;-79
2022/02/15 04:11:18;;;;;;;35.47;13.27;;;;;;;-2.36;60.05;101217.32;126216;1099;104513;-79
2022/02/15 04:13:50;;;;;;;31.73;13.37;;;;;;;-2.35;59.48;101220.83;126212;1096;104271;-79
2022/02/15 04:16:21;;;;;;;29.47;12.03;;;;;;;-2.36;59.31;101221.56;126201;1099;104265;-79
2022/02/15 04:18:54;;;;;;;31.00;12.87;;;;;;;-2.37;60.04;101214.59;126212;1099;104204;-79
2022/02/15 04:21:26;;;;;;;34.83;13.20;;;;;;;-2.40;60.00;101220.37;126282;1099;104147;-80
2022/02/15 04:23:57;;;;;;;31.57;12.47;;;;;;;-2.42;59.70;101219.29;126294;1099;104175;-80
2022/02/15 04:26:30;;;;;;;31.93;13.53;;;;;;;-2.43;60.17;101224.27;126327;1099;102087;-80
2022/02/15 04:29:03;;;;;;;30.70;13.30;;;;;;;-2.46;59.36;101218.83;126417;1096;104261;-80
2022/02/15 04:31:37;;;;;;;35.10;14.00;;;;;;;-2.48;60.50;101220.36;126410;1099;104630;-80
2022/02/15 04:34:09;;;;;;;35.37;14.37;;;;;;;-2.49;59.37;101224.59;126260;1099;104162;-80
2022/02/15 04:36:41;;;;;;;32.97;13.60;;;;;;;-2.50;59.25;101220.20;126335;1099;104137;-79
2022/02/15 04:39:13;;;;;;;34.37;13.97;;;;;;;-2.50;59.26;101222.77;126319;1098;104208;-79
2022/02/15 04:41:47;;;;;;;32.07;13.77;;;;;;;-2.51;60.12;101212.34;126357;1099;104162;-80
2022/02/15 04:44:21;;;;;;;37.58;14.23;;;;;;;-2.50;59.25;101221.88;126311;1096;104189;-80
2022/02/15 04:46:53;;;;;;;32.23;13.77;;;;;;;-2.51;59.15;101222.63;126156;1096;104203;-80
2022/02/15 04:49:27;;;;;;;30.37;11.47;;;;;;;-2.51;60.31;101220.05;126245;1096;104136;-80
2022/02/15 04:52:00;;;;;;;34.00;14.30;;;;;;;-2.53;59.25;101213.08;126341;1098;104236;-80
2022/02/15 04:54:31;;;;;;;35.37;15.10;;;;;;;-2.50;59.54;101216.73;126198;1099;104220;-80
2022/02/15 04:57:03;;;;;;;36.77;14.67;;;;;;;-2.52;59.76;101219.16;126364;1098;104271;-80
2022/02/15 04:59:35;;;;;;;30.20;14.23;;;;;;;-2.51;59.87;101222.63;126336;1100;104191;-80
2022/02/15 05:02:07;;;;;;;32.03;14.07;;;;;;;-2.53;60.70;101215.66;126403;1099;104309;-80
2022/02/15 05:04:50;;;;;;;37.20;14.93;;;;;;;-2.53;60.47;101222.47;126346;1096;104129;-80
2022/02/15 05:07:28;;;;;;;43.63;16.00;;;;;;;-2.52;60.27;101226.86;126230;1096;104188;-80
2022/02/15 05:10:01;;;;;;;41.50;14.85;;;;;;;-2.51;59.64;101230.33;126270;1096;104149;-80
2022/02/15 05:12:33;;;;;;;;;;;;;;;-2.53;61.17;101236.21;126199;1096;104182;-80
2022/02/15 05:15:09;;;;;;;36.43;15.50;;;;;;;-2.51;59.87;101235.47;126232;1099;104226;-79
2022/02/15 05:17:52;;;;;;;38.93;15.40;;;;;;;-2.49;59.60;101239.09;126134;1099;104162;-80
2022/02/15 05:20:24;;;;;;;35.73;15.07;;;;;;;-2.49;59.94;101246.80;126269;1099;104146;-79
2022/02/15 05:22:56;;;;;;;34.97;14.77;;;;;;;-2.47;59.78;101238.50;126288;1099;104296;-80
2022/02/15 05:25:27;;;;;;;39.70;15.63;;;;;;;-2.46;59.70;101244.53;125465;1099;104360;-80
2022/02/15 05:27:59;;;;;;;39.20;16.23;;;;;;;-2.44;60.35;101253.33;125928;1099;104179;-80
2022/02/15 05:30:32;;;;;;;36.77;16.03;;;;;;;-2.42;60.21;101252.70;125292;1099;104210;-80
2022/02/15 05:33:17;;;;;;;40.07;16.77;;;;;;;-2.42;60.59;101249.23;125508;1099;104367;-80
2022/02/15 05:35:52;;;;;;;42.43;17.80;;;;;;;-2.44;60.01;101258.47;125548;1099;104383;-80
2022/02/15 05:38:24;;;;;;;38.37;17.93;;;;;;;-2.47;60.67;101258.16;125244;1099;104290;-80
2022/02/15 05:40:57;;;;;;;39.67;17.27;;;;;;;-2.46;60.43;101257.39;125185;1099;104373;-80
2022/02/15 05:43:30;;;;;;;41.43;18.23;;;;;;;-2.48;61.48;101249.52;125413;1099;104165;-79
2022/02/15 05:46:08;;;;;;;41.47;18.43;;;;;;;-2.49;61.04;101260.58;125450;1099;104283;-79
2022/02/15 05:48:48;;;;;;;44.40;18.80;;;;;;;-2.48;61.05;101266.62;125869;1099;104297;-79
2022/02/15 05:51:32;;;;;;;39.80;17.57;;;;;;;-2.46;60.57;101266.03;126121;1099;104395;-80
2022/02/15 05:54:14;;;;;;;;;;;;;;;-2.48;60.92;101269.19;126244;1099;104289;-80
2022/02/15 05:56:46;;;;;;;38.77;16.83;;;;;;;-2.50;61.57;101269.03;126240;1099;104216;-80
2022/02/15 05:59:40;;;;;;;40.37;17.30;;;;;;;-2.47;61.52;101265.88;126291;1099;104291;-80
2022/02/15 06:02:21;;;;;;;41.80;17.90;;;;;;;-2.44;61.31;101269.64;126210;1099;104273;-81
2022/02/15 06:04:59;;;;;;;44.03;19.30;;;;;;;-2.40;62.42;101268.28;126191;1099;104166;-80
2022/02/15 06:07:37;;;;;;;51.23;21.23;;;;;;;-2.35;61.38;101269.66;126159;1096;104350;-80
2022/02/15 06:10:38;;;;;;;47.00;20.87;;;;;;;-2.25;61.36;101271.48;125882;1099;104412;-80
2022/02/15 06:13:30;;;;;;;48.37;21.63;;;;;;;-2.15;61.06;101284.50;126096;1096;104182;-78
2022/02/15 06:16:02;;;;;;;51.37;22.23;;;;;;;-2.10;61.41;101275.56;125847;1099;104201;-79
2022/02/15 06:18:46;;;;;;;53.87;22.00;;;;;;;-2.01;61.83;101283.25;125993;1099;104440;-78
2022/02/15 06:21:19;;;;;;;59.10;24.47;;;;;;;-1.95;62.60;101286.42;126107;1099;104159;-78
2022/02/15 06:23:51;;;;;;;55.10;24.83;;;;;;;-1.89;62.30;101280.98;126040;1098;104210;-78
2022/02/15 06:26:33;;;;;;;52.20;24.10;;;;;;;-1.78;61.23;101284.61;126063;1099;104325;-80
2022/02/15 06:29:40;;;;;;;53.73;23.00;;;;;;;-1.64;62.68;101281.70;125541;1099;104306;-80
2022/02/15 06:32:24;;;;;;;49.30;22.87;;;;;;;-1.52;61.46;101290.61;126198;1096;104287;-80
2022/02/15 06:34:57;;;;;;;51.27;21.97;;;;;;;-1.41;62.11;101277.87;126091;1096;104701;-79
2022/02/15 06:37:31;;;;;;;54.10;21.57;;;;;;;-1.32;62.60;101277.07;125972;1098;104262;-81
2022/02/15 06:40:07;;;;;;;53.10;21.07;;;;;;;-1.21;62.45;101287.50;125995;1098;104269;-80
2022/02/15 06:42:44;;;;;;;44.37;21.43;;;;;;;-1.08;62.45;101280.16;125949;1099;104976;-80
2022/02/15 06:45:18;;;;;;;45.83;19.85;;;;;;;-0.96;62.08;101282.99;126078;1099;104197;-79
2022/02/15 06:47:50;;;;;;;39.27;16.83;;;;;;;-0.81;62.35;101289.59;126129;1099;104181;-78
2022/02/15 06:50:22;;;;;;;35.87;15.93;;;;;;;-0.71;63.12;101281.03;125992;1098;104268;-78
2022/02/15 06:53:11;;;;;;;38.10;15.80;;;;;;;-0.59;61.96;101286.44;126045;1099;104191;-80
2022/02/15 06:56:21;;;;;;;35.13;14.53;;;;;;;-0.45;62.30;101286.03;125099;1102;104486;-76
2022/02/15 06:58:56;;;;;;;40.03;15.60;;;;;;;-0.31;62.47;101281.21;124962;1102;105251;-78
2022/02/15 07:01:37;;;;;;;25.93;11.10;;;;;;;-0.19;64.43;101278.11;125608;1099;104168;-79
2022/02/15 07:04:14;;;;;;;26.53;10.47;;;;;;;-0.10;63.42;101269.38;125706;1099;104249;-79
2022/02/15 07:07:00;;;;;;;25.43;10.25;;;;;;;-0.02;62.80;101273.55;125789;1099;104239;-79
2022/02/15 07:09:38;;;;;;;32.43;11.60;;;;;;;0.07;62.81;101260.58;125783;1099;104209;-79
2022/02/15 07:12:22;;;;;;;26.70;11.50;;;;;;;0.16;62.69;101266.56;125792;1099;104201;-79
2022/02/15 07:15:27;;;;;;;24.10;10.03;;;;;;;0.23;63.44;101266.32;125689;1099;104274;-79
2022/02/15 07:18:12;;;;;;;29.83;11.27;;;;;;;0.29;62.88;101261.70;125783;1098;104172;-79
2022/02/15 07:21:27;;;;;;;29.70;11.77;;;;;;;0.39;63.26;101252.19;125843;1099;104169;-80
2022/02/15 07:24:50;;;;;;;30.40;12.83;;;;;;;0.46;62.84;101258.03;125411;1099;104293;-80
2022/02/15 07:30:41;;;;;;;34.60;14.05;;;;;;;0.51;63.16;101255.86;125772;1099;104213;-81
2022/02/15 07:33:22;;;;;;;33.70;14.70;;;;;;;0.56;62.16;101251.09;125178;1102;104156;-82
2022/02/15 07:36:04;;;;;;;35.23;14.57;;;;;;;0.57;62.62;101250.34;125253;1102;104153;-81
2022/02/15 07:38:40;;;;;;;28.90;13.37;;;;;;;0.61;62.91;101248.16;125143;1102;104332;-80
2022/02/15 07:41:14;;;;;;;34.83;15.00;;;;;;;0.65;62.58;101250.22;124983;1102;104243;-79
2022/02/15 07:43:54;;;;;;;31.70;14.00;;;;;;;0.71;63.29;101258.50;125100;1102;104313;-79
2022/02/15 07:46:39;;;;;;;35.60;14.13;;;;;;;0.74;62.47;101263.04;125050;1102;104158;-79
2022/02/15 07:49:16;;;;;;;30.60;14.50;;;;;;;0.80;62.83;101260.09;125034;1102;104187;-79
2022/02/15 07:51:54;;;;;;;32.53;14.50;;;;;;;0.81;62.75;101255.06;125030;1102;104282;-80
2022/02/15 07:54:28;;;;;;;36.43;15.67;;;;;;;0.82;62.53;101253.38;124762;1102;104364;-79
2022/02/15 07:57:08;;;;;;;31.93;14.57;;;;;;;0.84;62.78;101256.98;125042;1102;104220;-79
2022/02/15 07:59:52;;;;;;;34.77;15.00;;;;;;;0.90;62.73;101254.93;125056;1102;109504;-79
2022/02/15 08:02:42;;;;;;;35.90;15.90;;;;;;;0.93;62.56;101255.19;125149;1102;104184;-81
2022/02/15 08:05:19;;;;;;;38.05;15.35;;;;;;;0.96;62.62;101262.31;125602;1099;104306;-81
2022/02/15 08:08:02;;;;;;;39.37;16.00;;;;;;;0.98;62.60;101255.59;125999;1098;104313;-78
2022/02/15 08:10:41;;;;;;;40.90;15.67;;;;;;;1.03;62.42;101241.41;125906;1099;104188;-78
2022/02/15 08:13:18;;;;;;;38.50;15.63;;;;;;;1.06;62.71;101244.22;125823;1099;104224;-78
2022/02/15 08:15:51;;;;;;;38.13;15.80;;;;;;;1.10;62.72;101241.14;125988;1099;104153;-78
2022/02/15 08:18:26;;;;;;;33.47;14.23;;;;;;;1.14;62.97;101243.22;125669;1099;104344;-81
2022/02/15 08:20:59;;;;;;;31.73;14.20;;;;;;;1.16;62.54;101253.69;125934;1099;104232;-78
2022/02/15 08:23:52;;;;;;;36.70;15.47;;;;;;;1.19;62.91;101249.67;126129;1099;104191;-78
2022/02/15 08:26:46;;;;;;;;;;;;;;;;;;;;;
2022/02/15 08:29:35;;;;;;;35.03;14.33;;;;;;;1.28;62.54;101246.98;125914;1097;104171;-79
2022/02/15 08:32:07;;;;;;;36.13;14.07;;;;;;;1.32;62.61;101249.03;126036;1097;104160;-78
2022/02/15 08:34:42;;;;;;;30.70;13.48;;;;;;;1.31;62.73;101244.66;125908;1099;104172;-78
2022/02/15 08:37:19;;;;;;;31.50;14.37;;;;;;;1.31;63.00;101249.83;125919;1099;104182;-78
2022/02/15 08:39:53;;;;;;;33.57;13.57;;;;;;;1.31;63.11;101242.07;125996;1098;104194;-78
2022/02/15 08:42:28;;;;;;;36.80;13.70;;;;;;;1.31;63.05;101243.73;125960;1098;104249;-78
2022/02/15 08:45:08;;;;;;;28.67;13.13;;;;;;;1.30;63.71;101248.00;125946;1099;103810;-78
2022/02/15 08:47:43;;;;;;;34.60;13.60;;;;;;;1.33;63.33;101240.51;126152;1098;104179;-80
2022/02/15 08:50:18;;;;;;;30.67;12.87;;;;;;;1.33;63.27;101240.51;126083;1099;104302;-80
2022/02/15 08:52:51;;;;;;;30.83;13.57;;;;;;;1.34;62.99;101250.09;126048;1098;104221;-79
2022/02/15 08:55:26;;;;;;;;;;;;;;;1.37;63.85;101241.66;125982;1099;104172;-78
2022/02/15 08:57:57;;;;;;;32.57;13.27;;;;;;;1.41;63.44;101244.63;125912;1099;104172;-78
2022/02/15 09:00:30;;;;;;;36.93;13.83;;;;;;;1.43;63.97;101239.59;126035;1097;104149;-77
2022/02/15 09:03:07;;;;;;;35.87;14.13;;;;;;;1.49;63.89;101234.93;125999;1097;102831;-78
2022/02/15 09:05:41;;;;;;;34.57;13.90;;;;;;;1.52;64.15;101239.47;126064;1099;104351;-76
2022/02/15 09:08:12;;;;;;;40.78;15.28;;;;;;;1.57;63.54;101233.91;126222;1096;104207;-79
2022/02/15 09:10:47;;;;;;;31.95;14.60;;;;;;;1.61;63.32;101235.06;126268;1096;104345;-79
2022/02/15 09:13:19;;;;;;;35.47;15.60;;;;;;;1.65;63.28;101231.93;126263;1099;104184;-80
2022/02/15 09:15:54;;;;;;;35.20;14.20;;;;;;;1.72;63.49;101226.50;126196;1097;104192;-80
2022/02/15 09:18:29;;;;;;;38.07;15.00;;;;;;;1.83;63.35;101229.08;126099;1099;104163;-77
2022/02/15 09:21:05;;;;;;;34.17;15.33;;;;;;;1.91;63.35;101222.84;126174;1096;104144;-78
2022/02/15 09:23:47;;;;;;;35.50;15.35;;;;;;;1.98;63.71;101217.40;125909;1099;104188;-79
2022/02/15 09:26:20;;;;;;;34.70;16.10;;;;;;;2.06;63.82;101215.44;126065;1096;104262;-79
2022/02/15 09:28:58;;;;;;;37.27;16.27;;;;;;;2.12;63.64;101211.64;126036;1096;104246;-77
2022/02/15 09:31:32;;;;;;;35.63;15.70;;;;;;;2.20;62.93;101208.75;125906;1099;104175;-79
2022/02/15 09:34:02;;;;;;;;;;;;;;;2.25;63.51;101205.76;126109;1099;104195;-78
2022/02/15 09:36:43;;;;;;;35.53;14.80;;;;;;;2.34;63.05;101203.02;126077;1099;104345;-79
2022/02/15 09:39:38;;;;;;;28.97;13.90;;;;;;;2.41;63.43;101200.11;126099;1099;104168;-81
2022/02/15 09:42:39;;;;;;;29.00;13.23;;;;;;;2.50;63.57;101198.25;126001;1098;104283;-79
2022/02/15 09:45:13;;;;;;;28.90;11.43;;;;;;;2.54;63.32;101191.65;126072;1096;104248;-79
2022/02/15 09:47:54;;;;;;;32.45;13.30;;;;;;;2.56;63.73;101190.06;126124;1099;104267;-79
2022/02/15 09:50:26;;;;;;;33.77;13.07;;;;;;;2.58;63.27;101183.31;125961;1096;104243;-81
2022/02/15 09:53:12;;;;;;;34.38;14.20;;;;;;;2.60;62.92;101181.77;126077;1099;104162;-81
2022/02/15 09:56:11;;;;;;;30.73;13.90;;;;;;;2.57;62.79;101176.34;126192;1099;104239;-81
2022/02/15 09:58:57;;;;;;;28.77;12.87;;;;;;;2.58;62.75;101179.83;126089;1099;104175;-80
2022/02/15 10:01:44;;;;;;;32.13;13.57;;;;;;;2.60;63.15;101175.66;126168;1096;102046;-80
2022/02/15 10:04:40;;;;;;;27.43;13.13;;;;;;;2.66;63.15;101177.03;125898;1096;104339;-80
2022/02/15 10:07:36;;;;;;;34.73;12.67;;;;;;;2.72;63.36;101171.44;125814;1099;104140;-79
2022/02/15 10:10:32;;;;;;;30.43;12.10;;;;;;;2.76;62.83;101160.53;125962;1096;104261;-80
2022/02/15 10:13:14;;;;;;;34.87;11.97;;;;;;;2.82;62.96;101163.60;125899;1099;111219;-79
2022/02/15 10:16:28;;;;;;;29.12;13.05;;;;;;;2.83;63.50;101169.67;125911;1099;104323;-81
2022/02/15 10:19:06;;;;;;;27.40;12.77;;;;;;;2.86;63.27;101163.03;126222;1099;104314;-78
2022/02/15 10:21:43;;;;;;;36.43;13.13;;;;;;;2.92;63.15;101157.42;125794;1099;104380;-79
2022/02/15 10:24:18;;;;;;;27.43;11.90;;;;;;;2.99;62.88;101157.12;125923;1099;104159;-79
2022/02/15 10:27:25;;;;;;;28.90;12.43;;;;;;;3.13;63.34;101160.77;125115;1099;104158;-79
2022/02/15 10:30:06;;;;;;;33.63;11.47;;;;;;;3.25;63.15;101155.59;125163;1099;104178;-78
2022/02/15 10:32:46;;;;;;;34.20;11.83;;;;;;;3.35;62.71;101157.17;125144;1099;104044;-79
2022/02/15 10:35:44;;;;;;;27.80;12.80;;;;;;;3.44;63.08;101151.78;125606;1099;104281;-78
2022/02/15 10:38:27;;;;;;;30.13;12.33;;;;;;;3.53;62.91;101155.95;125699;1099;102207;-78
2022/02/15 10:41:01;;;;;;;25.77;11.27;;;;;;;3.62;62.84;101147.96;125112;1099;104189;-79
2022/02/15 10:43:46;;;;;;;28.73;11.43;;;;;;;3.75;62.87;101134.19;125575;1099;104342;-79
2022/02/15 10:46:25;;;;;;;23.23;10.90;;;;;;;3.83;62.61;101132.15;125983;1098;102610;-79
2022/02/15 10:49:06;;;;;;;30.43;12.70;;;;;;;3.82;61.97;101145.91;125678;1099;104194;-80
2022/02/15 10:51:54;;;;;;;28.60;12.40;;;;;;;3.88;62.39;101135.97;125834;1099;104265;-80
2022/02/15 10:54:27;;;;;;;29.83;12.10;;;;;;;3.94;61.82;101133.82;125971;1099;110831;-79
2022/02/15 10:57:04;;;;;;;26.47;11.13;;;;;;;3.99;62.41;101124.69;126030;1099;104149;-79
2022/02/15 10:59:43;;;;;;;28.37;12.03;;;;;;;4.07;62.37;101120.05;125975;1099;103087;-79
2022/02/15 11:02:20;;;;;;;24.80;11.43;;;;;;;4.15;62.61;101121.49;125951;1099;104175;-79
2022/02/15 11:05:01;;;;;;;30.63;10.80;;;;;;;4.23;61.65;101119.44;125798;1096;104172;-79
2022/02/15 11:07:47;;;;;;;26.77;11.00;;;;;;;4.30;62.68;101114.79;125626;1099;104197;-78
2022/02/15 11:10:25;;;;;;;27.60;10.70;;;;;;;4.42;62.10;101116.44;125700;1099;104169;-78
2022/02/15 11:13:04;;;;;;;24.93;10.80;;;;;;;4.55;61.96;101111.31;125736;1096;102534;-78
2022/02/15 11:15:50;;;;;;;27.13;10.80;;;;;;;4.68;62.03;101106.15;125801;1099;104277;-79
2022/02/15 11:18:36;;;;;;;24.53;9.97;;;;;;;4.80;62.16;101099.98;125666;1100;104312;-80
2022/02/15 11:21:58;;;;;;;24.43;8.97;;;;;;;4.88;62.35;101103.11;125507;1099;104226;-80
2022/02/15 11:28:20;;;;;;;24.33;8.73;;;;;;;4.84;61.08;101087.30;125657;1099;103137;-80
2022/02/15 11:31:03;;;;;;;20.37;8.93;;;;;;;4.89;61.45;101079.80;125691;1096;104195;-80
2022/02/15 11:33:44;;;;;;;20.93;8.47;;;;;;;4.96;61.99;101071.63;125431;1099;104251;-80
2022/02/15 11:36:23;;;;;;;23.77;8.50;;;;;;;5.04;61.09;101066.94;125668;1098;104379;-80
2022/02/15 11:39:08;;;;;;;25.20;9.10;;;;;;;5.12;61.66;101068.34;125673;1099;104176;-80
2022/02/15 11:42:18;;;;;;;21.43;9.03;;;;;;;5.14;61.37;101056.36;125627;1099;104425;-80
2022/02/15 11:44:54;;;;;;;;;;;;;;;5.19;60.72;101056.67;125686;1099;104162;-81
2022/02/15 11:47:45;;;;;;;;;;;;;;;5.16;60.21;101051.27;125747;1099;104759;-79
2022/02/15 11:50:29;;;;;;;25.77;10.13;;;;;;;5.13;61.42;101053.66;125866;1099;104573;-79
2022/02/15 11:53:19;;;;;;;23.20;8.90;;;;;;;5.12;60.36;101057.05;125905;1099;104143;-78
2022/02/15 11:59:42;;;;;;;20.87;8.70;;;;;;;5.04;60.40;101046.13;126246;1099;104348;-80